createdAt,value
2018-01-03T00:00:16.284Z,993.8
2018-01-03T00:01:18.968Z,993.8
2018-01-03T00:02:21.382Z,993.7
2018-01-03T00:03:23.785Z,993.7
2018-01-03T00:04:26.196Z,993.6
2018-01-03T00:05:28.612Z,993.7
2018-01-03T00:06:31.027Z,993.7
2018-01-03T00:07:33.727Z,993.6
2018-01-03T00:08:36.150Z,993.6
2018-01-03T00:09:38.556Z,993.7
2018-01-03T00:10:40.964Z,993.5
2018-01-03T00:11:43.375Z,993.6
2018-01-03T00:12:45.783Z,993.5
2018-01-03T00:13:48.195Z,993.6
2018-01-03T00:14:50.601Z,993.5
2018-01-03T00:15:53.007Z,993.5
2018-01-03T00:16:55.710Z,993.4
2018-01-03T00:17:58.121Z,993.4
2018-01-03T00:19:00.802Z,993.3
2018-01-03T00:20:03.228Z,993.2
2018-01-03T00:21:05.637Z,993.2
2018-01-03T00:22:08.326Z,993
2018-01-03T00:23:10.744Z,993
2018-01-03T00:24:13.445Z,993
2018-01-03T00:25:15.852Z,993
2018-01-03T00:26:18.277Z,992.9
2018-01-03T00:27:20.964Z,993
2018-01-03T00:28:23.374Z,992.9
2018-01-03T00:29:25.787Z,992.9
2018-01-03T00:30:28.199Z,992.8
2018-01-03T00:31:30.602Z,992.8
2018-01-03T00:32:33.011Z,992.7
2018-01-03T00:33:35.434Z,992.7
2018-01-03T00:34:38.126Z,992.6
2018-01-03T00:35:40.540Z,992.6
2018-01-03T00:36:42.949Z,992.5
2018-01-03T00:37:45.358Z,992.5
2018-01-03T00:38:47.770Z,992.5
2018-01-03T00:39:50.185Z,992.4
2018-01-03T00:40:52.587Z,992.3
2018-01-03T00:41:54.996Z,992.3
2018-01-03T00:42:57.409Z,992.4
2018-01-03T00:43:59.812Z,992.3
2018-01-03T00:45:02.230Z,992.2
2018-01-03T00:46:04.640Z,992.1
2018-01-03T00:47:07.047Z,992
2018-01-03T00:48:09.747Z,992
2018-01-03T00:49:12.162Z,992
2018-01-03T00:50:14.574Z,992
2018-01-03T00:51:16.989Z,991.8
2018-01-03T00:52:19.386Z,991.9
2018-01-03T00:53:21.796Z,991.8
2018-01-03T00:54:24.210Z,991.9
2018-01-03T00:55:26.620Z,991.8
2018-01-03T00:56:29.037Z,991.8
2018-01-03T00:57:31.435Z,991.8
2018-01-03T00:58:33.840Z,991.8
2018-01-03T00:59:36.258Z,991.7
2018-01-03T01:00:38.948Z,991.7
2018-01-03T01:01:41.359Z,991.6
2018-01-03T01:02:43.774Z,991.6
2018-01-03T01:03:46.185Z,991.6
2018-01-03T01:04:48.597Z,991.5
2018-01-03T01:05:51.016Z,991.4
2018-01-03T01:06:53.410Z,991.4
2018-01-03T01:07:55.815Z,991.4
2018-01-03T01:08:58.223Z,991.2
2018-01-03T01:10:00.626Z,991.2
2018-01-03T01:11:03.043Z,991.2
2018-01-03T01:12:05.736Z,991.2
2018-01-03T01:13:08.146Z,991.2
2018-01-03T01:14:10.836Z,991.1
2018-01-03T01:15:13.536Z,991.1
2018-01-03T01:16:16.225Z,991.1
2018-01-03T01:17:18.629Z,991
2018-01-03T01:18:21.050Z,990.9
2018-01-03T01:19:23.734Z,990.9
2018-01-03T01:20:26.145Z,990.8
2018-01-03T01:21:28.547Z,990.8
2018-01-03T01:22:30.955Z,990.8
2018-01-03T01:23:33.355Z,990.7
2018-01-03T01:24:35.772Z,990.8
2018-01-03T01:25:38.455Z,990.7
2018-01-03T01:26:40.871Z,990.6
2018-01-03T01:27:43.280Z,990.5
2018-01-03T01:28:45.688Z,990.5
2018-01-03T01:29:48.096Z,990.5
2018-01-03T01:30:50.516Z,990.5
2018-01-03T01:31:52.921Z,990.5
2018-01-03T01:32:55.337Z,990.4
2018-01-03T01:33:58.021Z,990.4
2018-01-03T01:35:00.434Z,990.4
2018-01-03T01:36:02.842Z,990.3
2018-01-03T01:37:05.253Z,990.3
2018-01-03T01:38:07.657Z,990.3
2018-01-03T01:39:10.068Z,990.2
2018-01-03T01:40:12.767Z,990
2018-01-03T01:41:15.166Z,990.1
2018-01-03T01:42:17.593Z,990
2018-01-03T01:43:19.998Z,989.9
2018-01-03T01:44:22.408Z,989.9
2018-01-03T01:45:24.815Z,989.9
2018-01-03T01:46:27.511Z,989.9
2018-01-03T01:47:29.919Z,989.8
2018-01-03T01:48:32.621Z,989.8
2018-01-03T01:49:35.021Z,989.7
2018-01-03T01:50:37.424Z,989.6
2018-01-03T01:51:40.124Z,989.6
2018-01-03T01:52:42.541Z,989.6
2018-01-03T01:53:44.949Z,989.6
2018-01-03T01:54:47.365Z,989.5
2018-01-03T01:55:49.773Z,989.4
2018-01-03T01:56:52.777Z,989.4
2018-01-03T01:57:55.189Z,989.3
2018-01-03T01:58:57.610Z,989.5
2018-01-03T02:00:00.301Z,989.3
2018-01-03T02:01:02.709Z,989.3
2018-01-03T02:02:05.118Z,989.2
2018-01-03T02:03:07.522Z,989.1
2018-01-03T02:04:09.930Z,989.1
2018-01-03T02:05:12.343Z,989.1
2018-01-03T02:06:14.735Z,989
2018-01-03T02:07:17.150Z,988.9
2018-01-03T02:08:19.553Z,988.9
2018-01-03T02:09:21.961Z,988.8
2018-01-03T02:10:24.372Z,988.7
2018-01-03T02:11:26.787Z,988.8
2018-01-03T02:12:29.196Z,988.7
2018-01-03T02:13:31.615Z,988.7
2018-01-03T02:14:34.030Z,988.6
2018-01-03T02:15:36.708Z,988.5
2018-01-03T02:16:39.401Z,988.5
2018-01-03T02:17:41.808Z,988.5
2018-01-03T02:18:44.218Z,988.4
2018-01-03T02:19:46.622Z,988.4
2018-01-03T02:20:49.025Z,988.2
2018-01-03T02:21:51.437Z,988.1
2018-01-03T02:22:53.853Z,988
2018-01-03T02:23:56.267Z,988.1
2018-01-03T02:24:58.673Z,988
2018-01-03T02:26:01.085Z,987.9
2018-01-03T02:27:03.782Z,987.9
2018-01-03T02:28:06.182Z,987.9
2018-01-03T02:29:08.588Z,987.8
2018-01-03T02:30:11.008Z,987.8
2018-01-03T02:31:13.978Z,987.6
2018-01-03T02:32:16.382Z,987.7
2018-01-03T02:33:18.784Z,987.5
2018-01-03T02:34:21.200Z,987.5
2018-01-03T02:35:23.610Z,987.5
2018-01-03T02:36:26.028Z,987.4
2018-01-03T02:37:28.420Z,987.3
2018-01-03T02:38:31.121Z,987.2
2018-01-03T02:39:33.541Z,987.1
2018-01-03T02:40:35.938Z,987.2
2018-01-03T02:41:38.350Z,987.2
2018-01-03T02:42:40.753Z,987
2018-01-03T02:43:43.169Z,987
2018-01-03T02:44:45.583Z,987
2018-01-03T02:45:47.987Z,986.9
2018-01-03T02:46:50.388Z,987
2018-01-03T02:47:52.808Z,986.9
2018-01-03T02:48:55.207Z,986.8
2018-01-03T02:49:57.621Z,986.8
2018-01-03T02:51:00.033Z,986.7
2018-01-03T02:52:02.433Z,986.7
2018-01-03T02:53:04.844Z,986.5
2018-01-03T02:54:07.258Z,986.5
2018-01-03T02:55:09.664Z,986.6
2018-01-03T02:56:12.085Z,986.5
2018-01-03T02:57:14.501Z,986.4
2018-01-03T02:58:16.903Z,986.4
2018-01-03T02:59:19.305Z,986.3
2018-01-03T03:00:21.711Z,986.2
2018-01-03T03:01:24.115Z,986.3
2018-01-03T03:02:26.522Z,986.3
2018-01-03T03:03:28.923Z,986.1
2018-01-03T03:04:31.326Z,986.1
2018-01-03T03:05:33.751Z,986
2018-01-03T03:06:36.159Z,985.9
2018-01-03T03:07:38.572Z,986
2018-01-03T03:08:40.984Z,986
2018-01-03T03:09:43.393Z,986
2018-01-03T03:10:45.821Z,985.9
2018-01-03T03:11:48.227Z,985.9
2018-01-03T03:12:50.625Z,985.9
2018-01-03T03:13:53.037Z,985.9
2018-01-03T03:14:55.444Z,985.9
2018-01-03T03:15:58.134Z,985.8
2018-01-03T03:17:00.543Z,985.6
2018-01-03T03:18:02.942Z,985.5
2018-01-03T03:19:05.349Z,985.4
2018-01-03T03:20:07.768Z,985.3
2018-01-03T03:21:10.168Z,985.3
2018-01-03T03:22:12.572Z,985.4
2018-01-03T03:23:14.980Z,985.4
2018-01-03T03:24:17.391Z,985.3
2018-01-03T03:25:19.794Z,985.3
2018-01-03T03:26:22.205Z,985.2
2018-01-03T03:27:24.619Z,985.1
2018-01-03T03:28:27.022Z,985.1
2018-01-03T03:29:29.430Z,985.1
2018-01-03T03:30:31.826Z,984.8
2018-01-03T03:31:34.238Z,984.8
2018-01-03T03:32:36.926Z,984.8
2018-01-03T03:33:39.328Z,984.7
2018-01-03T03:34:41.736Z,984.6
2018-01-03T03:35:44.144Z,984.6
2018-01-03T03:36:46.561Z,984.5
2018-01-03T03:37:49.261Z,984.4
2018-01-03T03:38:51.656Z,984.4
2018-01-03T03:39:54.062Z,984.4
2018-01-03T03:40:56.760Z,984.3
2018-01-03T03:41:59.174Z,984.2
2018-01-03T03:43:01.870Z,984
2018-01-03T03:44:04.278Z,984.1
2018-01-03T03:45:06.684Z,984
2018-01-03T03:46:09.103Z,984
2018-01-03T03:47:11.503Z,983.8
2018-01-03T03:48:13.908Z,983.7
2018-01-03T03:49:16.312Z,983.8
2018-01-03T03:50:18.713Z,983.6
2018-01-03T03:51:21.721Z,983.7
2018-01-03T03:52:24.412Z,983.6
2018-01-03T03:53:26.810Z,983.5
2018-01-03T03:54:29.217Z,983.3
2018-01-03T03:55:31.631Z,983.3
2018-01-03T03:56:34.324Z,983.3
2018-01-03T03:57:36.730Z,983.3
2018-01-03T03:58:39.140Z,983.1
2018-01-03T03:59:41.541Z,983.1
2018-01-03T04:00:43.948Z,983.3
2018-01-03T04:01:46.367Z,983.3
2018-01-03T04:02:48.762Z,983.3
2018-01-03T04:03:51.183Z,983.2
2018-01-03T04:04:53.594Z,983.2
2018-01-03T04:05:56.003Z,983
2018-01-03T04:06:58.417Z,982.8
2018-01-03T04:08:00.823Z,982.7
2018-01-03T04:09:03.221Z,982.9
2018-01-03T04:10:05.644Z,982.9
2018-01-03T04:11:08.338Z,982.7
2018-01-03T04:12:10.745Z,982.6
2018-01-03T04:13:13.443Z,982.6
2018-01-03T04:14:16.124Z,982.6
2018-01-03T04:15:18.530Z,982.5
2018-01-03T04:16:20.945Z,982.4
2018-01-03T04:17:23.340Z,982.4
2018-01-03T04:18:25.755Z,982.4
2018-01-03T04:19:28.157Z,982.4
2018-01-03T16:48:55.973Z,973.6
2018-01-03T16:49:58.489Z,973.6
2018-01-03T16:51:00.981Z,973.7
2018-01-03T16:52:03.474Z,973.6
2018-01-03T16:53:05.978Z,973.6
2018-01-03T16:54:08.475Z,973.6
2018-01-03T16:55:10.969Z,973.7
2018-01-03T16:56:13.769Z,973.7
2018-01-03T16:57:16.249Z,973.7
2018-01-03T16:58:18.747Z,973.7
2018-01-03T16:59:21.541Z,973.6
2018-01-03T17:00:24.029Z,973.6
2018-01-03T17:01:26.538Z,973.6
2018-01-03T17:02:29.040Z,973.5
2018-01-03T17:03:31.534Z,973.6
2018-01-03T17:04:34.041Z,973.6
2018-01-03T17:05:36.536Z,973.7
2018-01-03T17:06:39.027Z,973.7
2018-01-03T17:07:41.527Z,973.5
2018-01-03T17:08:44.021Z,973.6
2018-01-03T17:09:46.519Z,973.7
2018-01-03T17:10:49.011Z,973.7
2018-01-03T17:11:51.796Z,973.8
2018-01-03T17:12:54.292Z,973.7
2018-01-03T17:13:56.789Z,973.6
2018-01-03T17:14:59.285Z,973.7
2018-01-03T17:16:01.782Z,973.8
2018-01-03T17:17:04.560Z,973.6
2018-01-03T17:18:07.061Z,973.7
2018-01-03T17:19:09.550Z,973.7
2018-01-03T17:20:12.046Z,973.6
2018-01-03T17:21:14.550Z,973.6
2018-01-03T17:22:17.051Z,973.7
2018-01-03T17:23:19.528Z,973.7
2018-01-03T17:24:22.022Z,973.7
2018-01-03T17:25:24.519Z,973.8
2018-01-03T17:26:27.017Z,973.7
2018-01-03T17:27:29.532Z,973.8
2018-01-03T17:28:32.059Z,973.9
2018-01-03T17:29:34.905Z,973.9
2018-01-03T17:30:38.124Z,973.8
2018-01-03T17:31:41.514Z,973.8
2018-01-03T17:32:44.437Z,973.9
2018-01-03T17:33:49.375Z,973.9
2018-01-03T17:34:53.374Z,973.8
2018-01-03T17:35:56.127Z,973.7
2018-01-03T17:37:00.379Z,973.9
2018-01-03T17:38:03.786Z,973.9
2018-01-03T17:39:07.834Z,973.9
2018-01-03T17:40:10.642Z,973.8
2018-01-03T17:41:13.582Z,973.8
2018-01-03T17:42:16.692Z,973.8
2018-01-03T17:43:19.492Z,973.8
2018-01-03T17:44:21.986Z,973.9
2018-01-03T17:45:24.500Z,973.8
2018-01-03T17:46:27.006Z,973.8
2018-01-03T17:47:29.806Z,973.9
2018-01-03T17:48:32.314Z,973.9
2018-01-03T17:49:34.836Z,973.9
2018-01-03T17:50:37.351Z,974
2018-01-03T17:51:39.876Z,974.1
2018-01-03T17:52:42.385Z,974
2018-01-03T17:53:44.898Z,974.1
2018-01-03T17:54:47.419Z,974
2018-01-03T17:55:49.933Z,974.1
2018-01-03T17:56:52.457Z,974
2018-01-03T17:57:54.957Z,974.1
2018-01-03T17:58:57.474Z,974
2018-01-03T18:00:00.088Z,974.2
2018-01-03T18:01:02.893Z,974
2018-01-03T18:02:05.407Z,974
2018-01-03T18:03:07.922Z,974.1
2018-01-03T18:04:10.432Z,974.1
2018-01-03T18:05:12.939Z,974.1
2018-01-03T18:06:15.444Z,974.2
2018-01-03T18:07:17.938Z,974.2
2018-01-03T18:08:20.459Z,974.2
2018-01-03T18:09:23.289Z,974.1
2018-01-03T18:10:26.099Z,974.2
2018-01-03T18:11:28.612Z,974.1
2018-01-03T18:12:31.114Z,974.2
2018-01-03T18:13:33.623Z,974.3
2018-01-03T18:14:36.131Z,974.2
2018-01-03T18:15:38.606Z,974.2
2018-01-03T18:16:41.415Z,974.1
2018-01-03T18:17:43.923Z,974.3
2018-01-03T18:18:46.417Z,974.2
2018-01-03T18:19:48.921Z,974.2
2018-01-03T18:20:51.429Z,974.2
2018-01-03T18:21:53.943Z,974.2
2018-01-03T18:22:56.436Z,974.2
2018-01-03T18:23:58.953Z,974.2
2018-01-03T18:25:01.462Z,974.2
2018-01-03T18:26:03.968Z,974.2
2018-01-03T18:27:06.483Z,974.2
2018-01-03T18:28:08.980Z,974.2
2018-01-03T18:29:11.490Z,974.3
2018-01-03T18:30:14.022Z,974.2
2018-01-03T18:31:16.524Z,974.2
2018-01-03T18:32:19.033Z,974.2
2018-01-03T18:33:21.550Z,974.2
2018-01-03T18:34:24.037Z,974.3
2018-01-03T18:35:26.547Z,974.2
2018-01-03T18:36:29.358Z,974.3
2018-01-03T18:37:32.153Z,974.2
2018-01-03T18:38:34.647Z,974.3
2018-01-03T18:39:37.166Z,974.3
2018-01-03T18:40:39.656Z,974.2
2018-01-03T18:41:42.174Z,974.3
2018-01-03T18:42:44.682Z,974.3
2018-01-03T18:43:47.193Z,974.2
2018-01-03T18:44:49.699Z,974.2
2018-01-03T18:45:52.216Z,974.3
2018-01-03T18:46:54.706Z,974.3
2018-01-03T18:47:57.221Z,974.3
2018-01-03T18:48:59.735Z,974.3
2018-01-03T18:50:02.542Z,974.3
2018-01-03T18:51:05.041Z,974.3
2018-01-03T18:52:07.553Z,974.2
2018-01-03T18:53:10.057Z,974.2
2018-01-03T18:54:12.551Z,974.2
2018-01-03T18:55:15.045Z,974.3
2018-01-03T18:56:17.547Z,974.2
2018-01-03T18:57:20.029Z,974.3
2018-01-03T18:58:22.541Z,974.5
2018-01-03T18:59:25.035Z,974.3
2018-01-03T19:00:27.535Z,974.4
2018-01-03T19:01:30.048Z,974.3
2018-01-03T19:02:32.559Z,974.5
2018-01-03T19:03:35.071Z,974.4
2018-01-03T19:04:37.560Z,974.5
2018-01-03T19:05:40.054Z,974.6
2018-01-03T19:06:42.559Z,974.6
2018-01-03T19:07:45.074Z,974.8
2018-01-03T19:08:47.586Z,974.6
2018-01-03T19:09:50.081Z,974.8
2018-01-03T19:10:52.594Z,974.8
2018-01-03T19:11:55.113Z,974.8
2018-01-03T19:12:57.925Z,974.7
2018-01-03T19:14:00.419Z,974.8
2018-01-03T19:15:02.938Z,974.8
2018-01-03T19:16:05.738Z,975
2018-01-03T19:17:08.233Z,974.8
2018-01-03T19:18:10.747Z,974.9
2018-01-03T19:19:13.244Z,974.9
2018-01-03T19:20:15.764Z,974.7
2018-01-03T19:21:18.280Z,975
2018-01-03T19:22:21.052Z,975
2018-01-03T19:23:23.557Z,975.1
2018-01-03T19:24:26.377Z,974.9
2018-01-03T19:25:28.880Z,975
2018-01-03T19:26:31.385Z,975
2018-01-03T19:27:33.898Z,974.9
2018-01-03T19:28:36.394Z,975
2018-01-03T19:29:38.930Z,975.1
2018-01-03T19:30:41.437Z,975
2018-01-03T19:31:43.928Z,975.3
2018-01-03T19:32:46.440Z,975.1
2018-01-03T19:33:48.935Z,975.2
2018-01-03T19:34:51.448Z,975.2
2018-01-03T19:35:53.964Z,975.3
2018-01-03T19:36:56.463Z,975.4
2018-01-03T19:37:58.983Z,975.3
2018-01-03T19:39:01.501Z,975.3
2018-01-03T19:40:04.030Z,975.3
2018-01-03T19:41:06.824Z,975.3
2018-01-03T19:42:09.346Z,975.5
2018-01-03T19:43:11.850Z,975.3
2018-01-03T19:44:14.419Z,975.4
2018-01-03T19:45:17.238Z,975.5
2018-01-03T19:46:19.732Z,975.5
2018-01-03T19:47:22.250Z,975.5
2018-01-03T19:48:24.788Z,975.5
2018-01-03T19:49:27.308Z,975.6
2018-01-03T19:50:29.816Z,975.7
2018-01-03T19:51:32.612Z,975.6
2018-01-03T19:52:35.132Z,975.6
2018-01-03T19:53:37.644Z,975.6
2018-01-03T19:54:40.166Z,975.7
2018-01-03T19:55:42.656Z,975.7
2018-01-03T19:56:45.456Z,975.6
2018-01-03T19:57:47.979Z,975.7
2018-01-03T19:58:50.777Z,975.8
2018-01-03T19:59:53.286Z,975.8
2018-01-03T20:00:56.105Z,975.8
2018-01-03T20:01:58.609Z,975.8
2018-01-03T20:03:01.154Z,975.9
2018-01-03T20:04:03.651Z,975.8
2018-01-03T20:05:06.162Z,975.9
2018-01-03T20:06:08.966Z,976
2018-01-03T20:07:11.768Z,976
2018-01-03T20:08:14.261Z,975.9
2018-01-03T20:09:16.775Z,976
2018-01-03T20:10:19.271Z,976
2018-01-03T20:11:21.780Z,976
2018-01-03T20:12:24.622Z,976
2018-01-03T20:13:27.423Z,976.1
2018-01-03T20:14:29.958Z,976.1
2018-01-03T20:15:32.444Z,976.1
2018-01-03T20:16:34.950Z,976.2
2018-01-03T20:17:37.453Z,976.2
2018-01-03T20:18:39.961Z,976.3
2018-01-03T20:19:42.486Z,976.2
2018-01-03T20:20:45.303Z,976.2
2018-01-03T20:21:47.790Z,976.2
2018-01-03T20:22:50.292Z,976.2
2018-01-03T20:23:52.783Z,976.3
2018-01-03T20:24:55.282Z,976.4
2018-01-03T20:25:57.782Z,976.2
2018-01-03T20:27:00.272Z,976.3
2018-01-03T20:28:02.762Z,976.3
2018-01-03T20:29:05.261Z,976.4
2018-01-03T20:30:07.750Z,976.5
2018-01-03T20:31:10.522Z,976.6
2018-01-03T20:32:13.011Z,976.4
2018-01-03T20:33:15.503Z,976.5
2018-01-03T20:34:18.293Z,976.7
2018-01-03T20:35:21.079Z,976.5
2018-01-03T20:36:23.569Z,976.6
2018-01-03T20:37:26.071Z,976.7
2018-01-03T20:38:28.566Z,976.5
2018-01-03T20:39:31.064Z,976.6
2018-01-03T20:40:33.563Z,976.7
2018-01-03T20:41:36.050Z,976.8
2018-01-03T20:42:38.543Z,976.8
2018-01-03T20:43:41.062Z,976.7
2018-01-03T20:44:43.552Z,976.8
2018-01-03T20:45:46.354Z,976.8
2018-01-03T20:46:49.144Z,976.9
2018-01-03T20:47:51.632Z,977
2018-01-03T20:48:54.135Z,977
2018-01-03T20:49:56.627Z,976.8
2018-01-03T20:50:59.113Z,977
2018-01-03T20:52:01.611Z,977
2018-01-03T20:53:04.114Z,977.2
2018-01-03T20:54:06.591Z,977
2018-01-03T20:55:09.388Z,977
2018-01-03T20:56:11.871Z,977.2
2018-01-03T20:57:14.368Z,977
2018-01-03T20:58:16.859Z,977.1
2018-01-03T20:59:19.360Z,977.2
2018-01-03T21:00:21.845Z,977.3
2018-01-03T21:01:24.350Z,977.2
2018-01-03T21:02:26.846Z,977.2
2018-01-03T21:03:29.349Z,977.3
2018-01-03T21:04:31.838Z,977.3
2018-01-03T21:05:34.332Z,977.4
2018-01-03T21:06:36.821Z,977.4
2018-01-03T21:07:39.332Z,977.2
2018-01-03T21:08:41.804Z,977.4
2018-01-03T21:09:44.301Z,977.4
2018-01-03T21:10:46.788Z,977.3
2018-01-03T21:11:49.279Z,977.4
2018-01-03T21:12:51.775Z,977.5
2018-01-03T21:13:54.273Z,977.4
2018-01-03T21:14:57.047Z,977.4
2018-01-03T21:15:59.833Z,977.5
2018-01-03T21:17:02.608Z,977.5
2018-01-03T21:18:05.114Z,977.5
2018-01-03T21:19:07.598Z,977.5
2018-01-03T21:20:10.086Z,977.5
2018-01-03T21:21:12.595Z,977.6
2018-01-03T21:22:15.088Z,977.5
2018-01-03T21:23:17.884Z,977.4
2018-01-03T21:24:20.663Z,977.6
2018-01-03T21:25:23.164Z,977.6
2018-01-03T21:26:25.677Z,977.6
2018-01-03T21:27:28.485Z,977.5
2018-01-03T21:28:30.967Z,977.6
2018-01-03T21:29:33.762Z,977.5
2018-01-03T21:30:36.253Z,977.6
2018-01-03T21:31:38.741Z,977.5
2018-01-03T21:32:41.244Z,977.6
2018-01-03T21:33:43.717Z,977.6
2018-01-03T21:34:46.214Z,977.5
2018-01-03T21:35:48.711Z,977.6
2018-01-03T21:36:51.487Z,977.5
2018-01-03T21:37:53.985Z,977.6
2018-01-03T21:38:56.476Z,977.6
2018-01-03T21:39:58.963Z,977.6
2018-01-03T21:41:01.469Z,977.5
2018-01-03T21:42:03.972Z,977.6
2018-01-03T21:43:06.452Z,977.7
2018-01-03T21:44:08.943Z,977.6
2018-01-03T21:45:11.433Z,977.6
2018-01-03T21:46:14.162Z,977.6
2018-01-03T21:47:16.945Z,977.7
2018-01-03T21:48:19.439Z,977.6
2018-01-03T21:49:21.934Z,977.7
2018-01-03T21:50:24.420Z,977.7
2018-01-03T21:51:26.924Z,977.7
2018-01-03T21:52:29.712Z,977.7
2018-01-03T21:53:32.202Z,977.7
2018-01-03T21:54:34.701Z,977.7
2018-01-03T21:55:37.203Z,977.7
2018-01-03T21:56:39.693Z,977.7
2018-01-03T21:57:42.185Z,977.7
2018-01-03T21:58:44.678Z,977.7
2018-01-03T21:59:47.164Z,977.8
2018-01-03T22:00:49.658Z,977.7
2018-01-03T22:01:52.437Z,977.7
2018-01-03T22:02:55.220Z,977.7
2018-01-03T22:03:57.998Z,977.7
2018-01-03T22:05:00.489Z,977.7
2018-01-03T22:06:02.992Z,977.7
2018-01-03T22:07:05.779Z,977.7
2018-01-03T22:08:08.266Z,977.7
2018-01-03T22:09:11.057Z,977.7
2018-01-03T22:10:13.550Z,977.8
2018-01-03T22:11:16.042Z,977.7
2018-01-03T22:12:18.534Z,977.7
2018-01-03T22:13:21.314Z,977.7
2018-01-03T22:14:24.093Z,977.7
2018-01-03T22:15:26.577Z,977.7
2018-01-03T22:16:29.081Z,977.7
2018-01-03T22:17:31.578Z,977.7
2018-01-03T22:18:34.353Z,977.8
2018-01-03T22:19:36.848Z,977.8
2018-01-03T22:20:39.633Z,977.7
2018-01-03T22:21:42.118Z,977.8
2018-01-03T22:22:44.609Z,977.6
2018-01-03T22:23:47.093Z,977.7
2018-01-03T22:24:49.582Z,977.7
2018-01-03T22:25:52.094Z,977.7
2018-01-03T22:26:54.574Z,977.7
2018-01-03T22:27:57.382Z,977.7
2018-01-03T22:28:59.887Z,977.6
2018-01-03T22:30:02.376Z,977.7
2018-01-03T22:31:04.890Z,977.6
2018-01-03T22:32:07.384Z,977.7
2018-01-03T22:33:10.149Z,977.6
2018-01-03T22:34:12.934Z,977.7
2018-01-03T22:35:15.452Z,977.7
2018-01-03T22:36:18.516Z,977.7
2018-01-03T22:37:21.017Z,977.7
2018-01-03T22:38:23.505Z,977.7
2018-01-03T22:39:26.003Z,977.7
2018-01-03T22:40:28.505Z,977.7
2018-01-03T22:41:30.989Z,977.7
2018-01-03T22:42:33.481Z,977.7
2018-01-03T22:43:35.967Z,977.8
2018-01-03T22:44:38.466Z,977.8
2018-01-03T22:45:41.277Z,977.8
2018-01-03T22:46:43.765Z,977.8
2018-01-03T22:47:46.253Z,977.7
2018-01-03T22:48:48.737Z,977.9
2018-01-03T22:49:51.245Z,977.8
2018-01-03T22:50:54.021Z,977.8
2018-01-03T22:51:56.514Z,977.8
2018-01-03T22:52:59.000Z,977.8
2018-01-03T22:54:01.504Z,977.8
2018-01-03T22:55:04.058Z,977.8
2018-01-03T22:56:06.556Z,977.8
2018-01-03T22:57:09.037Z,977.8
2018-01-03T22:58:11.533Z,977.8
2018-01-03T22:59:14.032Z,977.8
2018-01-03T23:00:16.515Z,977.9
2018-01-03T23:01:19.010Z,977.8
2018-01-03T23:02:21.499Z,977.8
2018-01-03T23:03:24.003Z,977.9
2018-01-03T23:04:26.503Z,977.9
2018-01-03T23:05:29.303Z,978
2018-01-03T23:06:31.781Z,977.9
2018-01-03T23:07:34.288Z,977.9
2018-01-03T23:08:36.777Z,977.9
2018-01-03T23:09:40.375Z,977.9
2018-01-03T23:10:43.326Z,978
2018-01-03T23:11:45.824Z,978
2018-01-03T23:12:48.321Z,978
2018-01-03T23:13:50.838Z,977.9
2018-01-03T23:14:53.714Z,978
2018-01-03T23:15:56.519Z,978
2018-01-03T23:16:59.031Z,977.9
2018-01-03T23:18:01.531Z,978
2018-01-03T23:19:04.026Z,978
2018-01-03T23:20:06.521Z,978.1
2018-01-03T23:21:09.022Z,978
2018-01-03T23:22:11.513Z,978
2018-01-03T23:23:14.002Z,978
2018-01-03T23:24:16.493Z,978.1
2018-01-03T23:25:18.982Z,978.2
2018-01-03T23:26:21.479Z,978.2
2018-01-03T23:27:24.267Z,978.2
2018-01-03T23:28:26.750Z,978.2
2018-01-03T23:29:29.253Z,978.2
2018-01-03T23:30:31.751Z,978.2
2018-01-03T23:31:34.241Z,978.2
2018-01-03T23:32:36.747Z,978.3
2018-01-03T23:33:39.242Z,978.3
2018-01-03T23:34:41.723Z,978.4
2018-01-03T23:35:44.222Z,978.4
2018-01-03T23:36:46.717Z,978.3
2018-01-03T23:37:49.209Z,978.4
2018-01-03T23:38:51.706Z,978.4
2018-01-03T23:39:54.182Z,978.5
2018-01-03T23:40:56.675Z,978.7
2018-01-03T23:41:59.184Z,978.5
2018-01-03T23:43:01.669Z,978.6
2018-01-03T23:44:04.169Z,978.6
2018-01-03T23:45:06.669Z,978.6
2018-01-03T23:46:09.166Z,978.7
2018-01-03T23:47:11.637Z,978.5
2018-01-03T23:48:14.129Z,978.5
2018-01-03T23:49:16.629Z,978.5
2018-01-03T23:50:19.118Z,978.6
2018-01-03T23:51:21.621Z,978.7
2018-01-03T23:52:24.110Z,978.8
2018-01-03T23:53:26.602Z,978.6
2018-01-03T23:54:29.397Z,978.6
2018-01-03T23:55:32.176Z,978.7
2018-01-03T23:56:34.658Z,978.7
2018-01-03T23:57:37.152Z,978.7
2018-01-03T23:58:39.936Z,978.5
2018-01-03T23:59:42.424Z,978.8
